createdAt,value
2022-09-20T00:01:08.044Z,17.70
2022-09-20T00:03:36.520Z,17.70
2022-09-20T00:06:05.098Z,17.60
2022-09-20T00:08:31.940Z,17.70
2022-09-20T00:11:02.112Z,17.70
2022-09-20T00:13:29.845Z,17.70
2022-09-20T00:15:56.711Z,17.70
2022-09-20T00:18:23.596Z,17.70
2022-09-20T00:20:51.104Z,17.70
2022-09-20T00:23:17.939Z,17.70
2022-09-20T00:25:44.987Z,17.70
2022-09-20T00:28:12.003Z,17.70
2022-09-20T00:30:39.101Z,17.70
2022-09-20T00:33:05.688Z,17.70
2022-09-20T00:35:32.975Z,17.60
2022-09-20T00:37:59.503Z,17.60
2022-09-20T00:40:29.079Z,17.70
2022-09-20T00:42:55.760Z,17.60
2022-09-20T00:45:26.785Z,17.60
2022-09-20T00:48:07.768Z,17.60
2022-09-20T00:50:52.484Z,17.60
2022-09-20T00:53:24.971Z,17.60
2022-09-20T00:56:00.805Z,17.60
2022-09-20T00:58:30.224Z,17.60
2022-09-20T01:00:58.254Z,17.60
2022-09-20T01:03:31.227Z,17.60
2022-09-20T01:06:01.176Z,17.60
2022-09-20T01:08:27.754Z,17.60
2022-09-20T01:10:54.568Z,17.60
2022-09-20T01:13:21.136Z,17.60
2022-09-20T01:15:49.317Z,17.60
2022-09-20T01:18:17.909Z,17.60
2022-09-20T01:20:46.379Z,17.60
2022-09-20T01:23:28.264Z,17.60
2022-09-20T01:26:28.743Z,17.60
2022-09-20T01:29:09.120Z,17.60
2022-09-20T01:31:43.600Z,17.60
2022-09-20T01:34:37.286Z,17.60
2022-09-20T01:37:12.340Z,17.60
2022-09-20T01:39:51.169Z,17.60
2022-09-20T01:42:18.113Z,17.60
2022-09-20T01:45:00.696Z,17.60
2022-09-20T01:47:39.559Z,17.60
2022-09-20T01:50:20.759Z,17.60
2022-09-20T01:53:15.655Z,17.60
2022-09-20T01:55:57.187Z,17.60
2022-09-20T01:58:46.960Z,17.60
2022-09-20T02:01:22.935Z,17.60
2022-09-20T02:04:15.732Z,17.60
2022-09-20T02:07:06.507Z,17.60
2022-09-20T02:09:54.563Z,17.60
2022-09-20T02:12:43.934Z,17.60
2022-09-20T02:15:36.413Z,17.60
2022-09-20T02:18:40.327Z,17.60
2022-09-20T02:21:37.620Z,17.60
2022-09-20T02:24:38.195Z,17.60
2022-09-20T02:27:26.034Z,17.60
2022-09-20T02:30:31.011Z,17.60
2022-09-20T02:33:06.656Z,17.60
2022-09-20T02:35:42.347Z,17.60
2022-09-20T02:38:44.086Z,17.60
2022-09-20T02:41:25.752Z,17.60
2022-09-20T02:44:09.262Z,17.60
2022-09-20T02:46:55.915Z,17.60
2022-09-20T02:49:59.995Z,17.60
2022-09-20T02:52:51.307Z,17.60
2022-09-20T02:55:34.965Z,17.60
2022-09-20T02:58:27.715Z,17.60
2022-09-20T03:01:24.136Z,17.60
2022-09-20T03:04:08.790Z,17.60
2022-09-20T03:07:02.276Z,17.60
2022-09-20T03:09:47.272Z,17.60
2022-09-20T03:12:35.833Z,17.60
2022-09-20T03:15:27.058Z,17.60
2022-09-20T03:18:18.907Z,17.60
2022-09-20T03:21:08.280Z,17.60
2022-09-20T03:24:07.881Z,17.60
2022-09-20T03:26:51.628Z,17.60
2022-09-20T03:29:21.140Z,17.60
2022-09-20T03:31:53.464Z,17.60
2022-09-20T03:34:55.221Z,17.60
2022-09-20T03:37:27.581Z,17.60
2022-09-20T03:40:19.217Z,17.60
2022-09-20T03:43:02.729Z,17.60
2022-09-20T03:45:44.548Z,17.60
2022-09-20T03:48:32.875Z,17.60
2022-09-20T03:51:30.423Z,17.60
2022-09-20T03:54:19.069Z,17.60
2022-09-20T03:57:06.739Z,17.60
2022-09-20T03:59:54.062Z,17.60
2022-09-20T04:02:50.399Z,17.60
2022-09-20T04:05:31.236Z,17.60
2022-09-20T04:08:16.272Z,17.60
2022-09-20T04:11:18.338Z,17.60
2022-09-20T04:13:56.548Z,17.60
2022-09-20T04:16:46.705Z,17.60
2022-09-20T04:19:21.923Z,17.60
2022-09-20T04:21:59.615Z,17.50
2022-09-20T04:24:42.969Z,17.60
2022-09-20T04:27:22.840Z,17.50
2022-09-20T04:30:01.645Z,17.30
2022-09-20T04:32:35.902Z,17.40
2022-09-20T04:35:41.858Z,17.50
2022-09-20T04:38:12.250Z,17.60
2022-09-20T04:41:16.735Z,17.60
2022-09-20T04:44:11.956Z,17.40
2022-09-20T04:47:02.980Z,17.20
2022-09-20T04:49:42.625Z,17.40
2022-09-20T04:52:49.988Z,17.40
2022-09-20T04:55:55.975Z,17.50
2022-09-20T04:58:36.161Z,17.50
2022-09-20T05:01:16.538Z,17.50
2022-09-20T05:04:18.715Z,17.60
2022-09-20T05:07:10.000Z,17.60
2022-09-20T05:10:11.129Z,17.60
2022-09-20T05:13:05.230Z,17.50
2022-09-20T05:16:05.272Z,17.50
2022-09-20T05:18:53.050Z,17.50
2022-09-20T05:21:47.697Z,17.50
2022-09-20T05:24:44.906Z,17.50
2022-09-20T05:27:48.688Z,17.50
2022-09-20T05:30:34.653Z,17.60
2022-09-20T05:33:29.578Z,17.60
2022-09-20T05:36:36.440Z,17.60
2022-09-20T05:39:37.946Z,17.50
2022-09-20T05:42:20.807Z,17.60
2022-09-20T05:44:54.991Z,17.60
2022-09-20T05:47:45.349Z,17.60
2022-09-20T05:50:35.865Z,17.60
2022-09-20T05:53:38.044Z,17.60
2022-09-20T05:56:34.221Z,17.60
2022-09-20T05:59:41.036Z,17.60
2022-09-20T06:02:27.906Z,17.60
2022-09-20T06:05:28.721Z,17.50
2022-09-20T06:08:03.550Z,17.50
2022-09-20T06:10:36.263Z,17.60
2022-09-20T06:13:38.155Z,17.50
2022-09-20T06:16:07.061Z,17.50
2022-09-20T06:18:54.432Z,17.60
2022-09-20T06:21:45.655Z,17.50
2022-09-20T06:24:40.411Z,17.50
2022-09-20T06:27:14.035Z,17.50
2022-09-20T06:29:45.861Z,17.50
2022-09-20T06:32:17.416Z,17.60
2022-09-20T06:34:44.159Z,17.60
2022-09-20T06:37:41.716Z,17.50
2022-09-20T06:40:52.070Z,17.50
2022-09-20T06:43:19.271Z,17.50
2022-09-20T06:45:46.023Z,17.50
2022-09-20T06:48:13.229Z,17.50
2022-09-20T06:50:41.540Z,17.50
2022-09-20T06:53:13.853Z,17.50
2022-09-20T06:58:09.709Z,17.50
2022-09-20T07:00:36.926Z,17.50
2022-09-20T07:03:03.910Z,17.50
2022-09-20T07:05:30.413Z,17.50
2022-09-20T07:07:58.649Z,17.50
2022-09-20T07:10:28.786Z,17.50
2022-09-20T07:13:00.270Z,17.50
2022-09-20T07:15:28.628Z,17.50
2022-09-20T07:17:55.540Z,17.50
2022-09-20T07:20:22.797Z,17.50
2022-09-20T07:22:50.466Z,17.50
2022-09-20T07:25:18.159Z,17.50
2022-09-20T07:27:46.365Z,17.50
2022-09-20T07:30:14.782Z,17.50
2022-09-20T07:32:41.388Z,17.50
2022-09-20T07:35:09.724Z,17.60
2022-09-20T07:37:37.320Z,17.50
2022-09-20T07:40:05.215Z,17.50
2022-09-20T07:42:32.148Z,17.60
2022-09-20T07:47:31.357Z,17.20
2022-09-20T07:49:58.380Z,15.90
2022-09-20T07:52:24.955Z,15.50
2022-09-20T07:54:51.640Z,15.60
2022-09-20T07:57:18.213Z,15.00
2022-09-20T07:59:44.755Z,15.00
2022-09-20T08:02:15.646Z,16.10
2022-09-20T08:04:42.728Z,16.10
2022-09-20T08:07:09.299Z,16.50
2022-09-20T08:14:49.583Z,16.90
2022-09-20T08:17:16.288Z,17.00
2022-09-20T08:19:44.474Z,17.10
2022-09-20T08:22:12.503Z,17.20
2022-09-20T08:24:39.369Z,17.20
2022-09-20T08:27:05.932Z,17.30
2022-09-20T08:29:32.741Z,17.30
2022-09-20T08:32:01.310Z,17.40
2022-09-20T08:34:28.100Z,17.40
2022-09-20T08:36:56.447Z,17.40
2022-09-20T08:42:23.147Z,17.40
2022-09-20T08:45:01.416Z,17.40
2022-09-20T08:47:32.247Z,17.40
2022-09-20T08:50:09.006Z,17.40
2022-09-20T08:52:39.733Z,17.40
2022-09-20T08:55:18.403Z,17.40
2022-09-20T08:57:49.176Z,17.40
2022-09-20T09:00:21.515Z,17.50
2022-09-20T09:02:53.904Z,17.40
2022-09-20T09:05:33.397Z,17.50
2022-09-20T09:08:04.571Z,17.50
2022-09-20T09:10:42.698Z,17.50
2022-09-20T09:13:23.833Z,17.50
2022-09-20T09:15:58.707Z,17.50
2022-09-20T09:18:35.064Z,17.50
2022-09-20T09:21:04.858Z,17.50
2022-09-20T09:23:40.925Z,17.50
2022-09-20T09:26:16.176Z,17.60
2022-09-20T09:28:43.961Z,17.60
2022-09-20T09:31:28.127Z,17.60
2022-09-20T09:33:55.811Z,17.60
2022-09-20T09:36:25.646Z,17.60
2022-09-20T09:39:13.964Z,17.60
2022-09-20T09:41:41.023Z,17.60
2022-09-20T09:44:23.053Z,17.60
2022-09-20T09:46:50.391Z,17.70
2022-09-20T09:49:23.359Z,17.70
2022-09-20T09:52:27.829Z,17.70
2022-09-20T09:55:03.146Z,17.70
2022-09-20T09:57:59.535Z,17.80
2022-09-20T10:00:27.120Z,17.80
2022-09-20T10:03:18.313Z,17.80
2022-09-20T10:06:17.292Z,17.80
2022-09-20T10:09:09.977Z,17.80
2022-09-20T10:11:42.345Z,17.80
2022-09-20T10:14:25.778Z,17.80
2022-09-20T10:17:29.404Z,17.80
2022-09-20T10:20:19.297Z,17.80
2022-09-20T10:23:26.546Z,17.80
2022-09-20T10:26:13.338Z,17.80
2022-09-20T10:29:08.241Z,17.80
2022-09-20T10:31:59.074Z,17.80
2022-09-20T10:34:39.296Z,17.80
2022-09-20T10:37:19.036Z,17.80
2022-09-20T10:39:53.814Z,17.80
2022-09-20T10:43:05.175Z,17.80
2022-09-20T10:46:30.635Z,17.70
2022-09-20T10:49:16.548Z,17.70
2022-09-20T10:52:08.236Z,17.70
2022-09-20T10:54:42.550Z,17.70
2022-09-20T10:57:46.517Z,17.70
2022-09-20T11:00:42.142Z,17.70
2022-09-20T11:03:19.283Z,17.70
2022-09-20T11:06:01.776Z,17.70
2022-09-20T11:08:33.584Z,17.70
2022-09-20T11:11:04.407Z,17.70
2022-09-20T11:13:40.543Z,17.80
2022-09-20T11:16:18.146Z,17.80
2022-09-20T11:18:53.496Z,17.80
2022-09-20T11:21:46.060Z,17.80
2022-09-20T11:24:28.390Z,17.80
2022-09-20T11:27:00.065Z,17.70
2022-09-20T11:32:00.291Z,17.80
2022-09-20T11:34:59.538Z,17.80
2022-09-20T11:37:33.643Z,17.80
2022-09-20T11:40:06.140Z,17.70
2022-09-20T11:42:36.628Z,17.70
2022-09-20T11:45:03.615Z,17.80
2022-09-20T11:47:53.425Z,17.80
2022-09-20T11:50:34.512Z,17.80
2022-09-20T11:53:19.060Z,17.80
2022-09-20T11:56:05.067Z,17.80
2022-09-20T12:03:37.557Z,17.80
2022-09-20T12:06:34.307Z,17.80
2022-09-20T12:09:21.059Z,17.80
2022-09-20T12:11:47.836Z,17.80
2022-09-20T12:14:27.236Z,17.80
2022-09-20T12:16:54.700Z,17.80
2022-09-20T12:19:21.240Z,17.80
2022-09-20T12:21:59.858Z,17.80
2022-09-20T12:24:31.996Z,17.80
2022-09-20T12:27:06.959Z,17.80
2022-09-20T12:29:34.046Z,17.90
2022-09-20T12:32:03.430Z,17.90
2022-09-20T12:34:36.018Z,17.90
2022-09-20T12:37:04.934Z,17.90
2022-09-20T12:39:35.985Z,17.80
2022-09-20T12:42:10.452Z,17.80
2022-09-20T12:44:44.209Z,17.80
2022-09-20T12:47:10.708Z,17.80
2022-09-20T12:50:04.334Z,17.70
2022-09-20T12:52:53.619Z,17.70
2022-09-20T12:55:26.850Z,17.70
2022-09-20T12:58:12.499Z,17.70
2022-09-20T13:00:54.210Z,17.70
2022-09-20T13:03:36.989Z,17.70
2022-09-20T13:06:06.611Z,17.70
2022-09-20T13:08:41.394Z,17.70
2022-09-20T13:11:14.664Z,17.80
2022-09-20T13:14:04.053Z,17.80
2022-09-20T13:16:54.454Z,17.80
2022-09-20T13:19:41.639Z,17.80
2022-09-20T13:22:17.334Z,17.80
2022-09-20T13:24:48.727Z,17.80
2022-09-20T13:27:23.450Z,17.80
2022-09-20T13:29:50.899Z,17.70
2022-09-20T13:32:29.251Z,17.70
2022-09-20T13:35:10.761Z,17.70
2022-09-20T13:37:40.077Z,17.70
2022-09-20T13:40:07.012Z,17.70
2022-09-20T13:42:37.319Z,17.70
2022-09-20T13:45:04.923Z,17.70
2022-09-20T13:47:32.452Z,17.70
2022-09-20T13:50:20.370Z,17.70
2022-09-20T13:52:52.947Z,17.70
2022-09-20T13:55:28.396Z,17.70
2022-09-20T13:57:57.338Z,17.70
2022-09-20T14:00:27.759Z,17.70
2022-09-20T14:05:26.590Z,17.70
2022-09-20T14:07:54.232Z,17.70
2022-09-20T14:10:42.821Z,17.70
2022-09-20T14:13:15.820Z,17.70
2022-09-20T14:15:45.246Z,17.70
2022-09-20T14:18:16.955Z,17.70
2022-09-20T14:20:47.908Z,17.70
2022-09-20T14:23:26.241Z,17.70
2022-09-20T14:26:20.825Z,17.70
2022-09-20T14:31:27.446Z,17.70
2022-09-20T14:33:58.218Z,17.70
2022-09-20T14:36:27.817Z,17.70
2022-09-20T14:38:58.781Z,17.70
2022-09-20T14:41:38.795Z,17.70
2022-09-20T14:44:22.343Z,17.70
2022-09-20T14:46:48.925Z,17.70
2022-09-20T14:49:25.527Z,17.70
2022-09-20T14:51:53.300Z,17.70
2022-09-20T14:54:30.562Z,17.70
2022-09-20T14:56:58.381Z,17.70
2022-09-20T14:59:27.498Z,17.70
2022-09-20T15:02:15.243Z,17.70
2022-09-20T15:04:54.202Z,17.60
2022-09-20T15:07:21.110Z,17.70
2022-09-20T15:09:47.847Z,17.50
2022-09-20T15:12:14.373Z,17.30
2022-09-20T15:14:41.357Z,17.10
2022-09-20T15:17:13.712Z,17.00
2022-09-20T15:19:40.247Z,17.00
2022-09-20T15:22:09.871Z,16.90
2022-09-20T15:24:36.416Z,16.80
2022-09-20T15:27:03.021Z,16.80
2022-09-20T15:29:29.822Z,16.70
2022-09-20T15:34:23.888Z,16.50
2022-09-20T15:36:50.686Z,16.50
2022-09-20T15:39:17.260Z,16.40
2022-09-20T15:41:45.903Z,16.40
2022-09-20T15:44:16.448Z,16.30
2022-09-20T15:49:11.896Z,16.30
2022-09-20T15:54:09.511Z,16.20
2022-09-20T15:56:37.443Z,16.10
2022-09-20T15:59:05.674Z,16.10
2022-09-20T16:01:39.484Z,16.10
2022-09-20T16:04:14.484Z,16.10
2022-09-20T16:06:42.454Z,16.20
2022-09-20T16:09:10.041Z,16.20
2022-09-20T16:11:37.488Z,16.10
2022-09-20T16:14:04.535Z,16.00
2022-09-20T16:16:37.421Z,16.00
2022-09-20T16:19:20.329Z,15.90
2022-09-20T16:21:55.070Z,15.90
2022-09-20T16:24:25.666Z,15.80
2022-09-20T16:26:52.680Z,15.80
2022-09-20T16:31:50.026Z,15.70
2022-09-20T16:34:19.125Z,15.70
2022-09-20T16:36:47.249Z,15.80
2022-09-20T16:39:15.719Z,16.10
2022-09-20T16:41:44.347Z,16.40
2022-09-20T16:46:37.901Z,16.70
2022-09-20T16:49:07.137Z,16.70
2022-09-20T16:51:36.316Z,16.80
2022-09-20T16:54:05.068Z,17.10
2022-09-20T16:56:33.924Z,17.10
2022-09-20T16:59:01.941Z,17.10
2022-09-20T17:03:56.846Z,17.20
2022-09-20T17:06:24.160Z,17.10
2022-09-20T17:08:58.851Z,17.20
2022-09-20T17:11:27.961Z,17.20
2022-09-20T17:13:55.639Z,17.20
2022-09-20T17:16:30.643Z,17.20
2022-09-20T17:18:59.524Z,17.20
2022-09-20T17:21:27.840Z,17.30
2022-09-20T17:23:56.975Z,17.30
2022-09-20T17:26:33.046Z,17.30
2022-09-20T17:29:01.239Z,17.20
2022-09-20T17:31:33.887Z,17.30
2022-09-20T17:34:02.174Z,17.30
2022-09-20T17:36:31.879Z,17.30
2022-09-20T17:39:03.948Z,17.00
2022-09-20T17:44:00.520Z,17.20
2022-09-20T17:46:31.491Z,17.20
2022-09-20T17:49:01.086Z,17.30
2022-09-20T17:51:42.147Z,17.30
2022-09-20T17:54:12.745Z,17.20
2022-09-20T17:56:41.768Z,17.30
2022-09-20T18:01:40.423Z,17.30
2022-09-20T18:06:37.691Z,17.30
2022-09-20T18:09:07.090Z,17.40
2022-09-20T18:11:40.279Z,17.40
2022-09-20T18:14:10.102Z,17.40
2022-09-20T18:16:38.098Z,17.40
2022-09-20T18:19:06.454Z,17.40
2022-09-20T18:24:05.284Z,17.40
2022-09-20T18:26:32.724Z,17.40
2022-09-20T18:29:05.391Z,17.40
2022-09-20T18:31:37.353Z,17.40
2022-09-20T18:34:09.758Z,17.40
2022-09-20T18:36:40.420Z,17.40
2022-09-20T18:39:07.839Z,17.40
2022-09-20T18:41:36.645Z,17.40
2022-09-20T18:44:05.228Z,17.40
2022-09-20T18:49:04.450Z,17.40
2022-09-20T18:51:34.735Z,17.40
2022-09-20T18:56:32.773Z,17.40
2022-09-20T18:59:02.044Z,17.40
2022-09-20T19:04:42.676Z,17.40
2022-09-20T19:07:27.519Z,17.40
2022-09-20T19:10:03.297Z,17.40
2022-09-20T19:12:46.407Z,17.40
2022-09-20T19:15:42.117Z,17.40
2022-09-20T19:18:50.425Z,17.40
2022-09-20T19:21:42.716Z,17.40
2022-09-20T19:24:34.005Z,17.40
2022-09-20T19:27:00.655Z,17.40
2022-09-20T19:29:28.371Z,17.40
2022-09-20T19:31:57.551Z,17.40
2022-09-20T19:34:27.174Z,17.40
2022-09-20T19:37:27.528Z,17.40
2022-09-20T19:42:35.973Z,17.40
2022-09-20T19:45:07.097Z,17.40
2022-09-20T19:47:59.761Z,17.40
2022-09-20T19:50:47.734Z,17.10
2022-09-20T19:53:16.813Z,17.10
2022-09-20T19:55:48.371Z,17.30
2022-09-20T20:00:46.431Z,17.40
2022-09-20T20:03:14.439Z,17.40
2022-09-20T20:06:16.749Z,17.40
2022-09-20T20:08:56.505Z,17.40
2022-09-20T20:12:00.993Z,17.40
2022-09-20T20:14:45.663Z,17.40
2022-09-20T20:17:46.573Z,17.40
2022-09-20T20:20:23.952Z,17.40
2022-09-20T20:22:53.523Z,17.40
2022-09-20T20:30:14.143Z,17.40
2022-09-20T20:40:02.488Z,17.40
2022-09-20T20:42:29.025Z,17.50
2022-09-20T20:47:22.991Z,17.50
2022-09-20T20:54:46.851Z,17.30
2022-09-20T20:57:15.647Z,17.20
2022-09-20T21:04:36.980Z,17.40
2022-09-20T21:11:58.442Z,17.40
2022-09-20T21:14:25.013Z,17.40
2022-09-20T21:16:51.933Z,17.40
2022-09-20T21:19:18.987Z,17.40
2022-09-20T21:21:47.805Z,17.50
2022-09-20T21:24:17.053Z,17.40
2022-09-20T21:26:45.593Z,17.40
2022-09-20T21:29:14.275Z,17.50
2022-09-20T21:31:43.464Z,17.40
2022-09-20T21:34:12.086Z,17.50
2022-09-20T21:36:41.308Z,17.40
2022-09-20T21:39:08.341Z,17.50
2022-09-20T21:41:37.220Z,17.50
2022-09-20T21:44:05.563Z,17.50
2022-09-20T21:46:34.688Z,17.50
2022-09-20T21:49:04.520Z,17.50
2022-09-20T21:51:32.675Z,17.50
2022-09-20T21:54:01.362Z,17.50
2022-09-20T21:56:33.590Z,17.50
2022-09-20T21:59:02.418Z,17.50
2022-09-20T22:04:00.688Z,17.40
2022-09-20T22:06:32.928Z,17.50
2022-09-20T22:09:14.798Z,17.50
2022-09-20T22:11:46.668Z,17.50
2022-09-20T22:14:16.081Z,17.50
2022-09-20T22:16:44.649Z,17.50
2022-09-20T22:19:13.754Z,17.50
2022-09-20T22:21:42.758Z,17.50
2022-09-20T22:24:11.158Z,17.40
2022-09-20T22:26:43.952Z,17.50
2022-09-20T22:29:11.349Z,17.40
2022-09-20T22:31:44.620Z,17.50
2022-09-20T22:34:15.897Z,17.50
2022-09-20T22:36:42.783Z,17.50
2022-09-20T22:39:10.903Z,17.40
2022-09-20T22:41:39.020Z,17.40
2022-09-20T22:44:06.065Z,17.40
2022-09-20T22:46:33.605Z,17.40
2022-09-20T22:49:00.119Z,17.40
2022-09-20T22:51:33.120Z,17.50
2022-09-20T22:54:03.784Z,17.40
2022-09-20T22:56:31.311Z,17.40
2022-09-20T22:59:05.395Z,17.40
2022-09-20T23:01:34.868Z,17.40
2022-09-20T23:04:04.131Z,17.50
2022-09-20T23:06:33.783Z,17.40
2022-09-20T23:09:02.649Z,17.40
2022-09-20T23:11:29.693Z,17.40
2022-09-20T23:13:58.818Z,17.40
2022-09-20T23:16:30.550Z,17.40
2022-09-20T23:18:59.005Z,17.40
2022-09-20T23:21:25.841Z,17.40
2022-09-20T23:24:00.633Z,17.40
2022-09-20T23:26:29.717Z,17.50
2022-09-20T23:28:58.731Z,17.40
2022-09-20T23:31:26.909Z,17.40
2022-09-20T23:33:55.934Z,17.40
2022-09-20T23:36:24.282Z,17.40
2022-09-20T23:38:51.612Z,17.40
2022-09-20T23:41:20.821Z,17.50
2022-09-20T23:43:47.812Z,17.50
2022-09-20T23:46:16.172Z,17.40
2022-09-20T23:48:43.177Z,17.40
2022-09-20T23:51:22.461Z,17.40
2022-09-20T23:53:49.833Z,17.40
2022-09-20T23:56:16.831Z,17.40
2022-09-20T23:58:44.109Z,17.40
